createdAt,value
2017-10-15T00:01:01.970Z,76.52
2017-10-15T00:02:12.374Z,76.42
2017-10-15T00:03:22.780Z,76.42
2017-10-15T00:04:33.174Z,76.71
2017-10-15T00:05:43.591Z,76.62
2017-10-15T00:06:54.007Z,76.42
2017-10-15T00:08:03.750Z,76.52
2017-10-15T00:09:13.838Z,76.52
2017-10-15T00:10:24.235Z,76.62
2017-10-15T00:11:34.647Z,76.81
2017-10-15T00:12:45.112Z,76.81
2017-10-15T00:13:55.184Z,76.62
2017-10-15T00:15:05.263Z,76.23
2017-10-15T00:16:15.672Z,76.62
2017-10-15T00:17:26.059Z,76.62
2017-10-15T00:18:36.506Z,76.23
2017-10-15T00:19:46.901Z,76.33
2017-10-15T00:20:56.961Z,76.23
2017-10-15T00:22:07.351Z,76.52
2017-10-15T00:23:17.762Z,76.71
2017-10-15T00:24:28.161Z,76.62
2017-10-15T00:25:38.586Z,76.52
2017-10-15T00:26:48.673Z,76.48
2017-10-15T00:28:00.619Z,76.62
2017-10-15T00:29:11.006Z,77
2017-10-15T00:30:21.435Z,77
2017-10-15T00:31:31.844Z,76.57
2017-10-15T00:32:42.243Z,76.42
2017-10-15T00:33:52.314Z,76.42
2017-10-15T00:35:02.390Z,76.9
2017-10-15T00:36:12.510Z,76.42
2017-10-15T00:37:22.895Z,76.62
2017-10-15T00:38:32.982Z,76.42
2017-10-15T00:39:43.069Z,76.71
2017-10-15T00:40:53.459Z,76.52
2017-10-15T00:42:03.546Z,76.62
2017-10-15T00:43:13.631Z,76.52
2017-10-15T00:44:24.034Z,76.52
2017-10-15T00:45:34.111Z,76.42
2017-10-15T00:46:44.538Z,76.42
2017-10-15T00:47:54.639Z,76.62
2017-10-15T00:49:05.039Z,76.62
2017-10-15T00:50:15.454Z,76.62
2017-10-15T00:51:25.193Z,76.33
2017-10-15T00:52:35.273Z,76.81
2017-10-15T00:53:45.669Z,76.71
2017-10-15T00:54:56.066Z,76.77
2017-10-15T00:56:05.488Z,76.57
2017-10-15T00:57:15.566Z,76.39
2017-10-15T00:58:25.648Z,76.57
2017-10-15T00:59:36.107Z,76.77
2017-10-15T01:00:46.513Z,76.77
2017-10-15T01:01:56.592Z,76.77
2017-10-15T01:03:06.987Z,76.39
2017-10-15T01:04:17.060Z,76.86
2017-10-15T01:05:27.506Z,76.96
2017-10-15T01:06:37.888Z,76.81
2017-10-15T01:07:47.954Z,76.39
2017-10-15T01:08:58.355Z,76.67
2017-10-15T01:10:08.769Z,76.57
2017-10-15T01:11:19.176Z,77.06
2017-10-15T01:12:29.589Z,76.71
2017-10-15T01:13:39.683Z,76.67
2017-10-15T01:14:50.083Z,76.57
2017-10-15T01:16:00.492Z,76.48
2017-10-15T01:17:10.555Z,76.57
2017-10-15T01:18:20.616Z,76.96
2017-10-15T01:19:30.713Z,76.62
2017-10-15T01:20:40.789Z,76.48
2017-10-15T01:21:50.904Z,76.67
2017-10-15T01:23:00.974Z,76.39
2017-10-15T01:24:11.387Z,76.48
2017-10-15T01:25:21.792Z,76.48
2017-10-15T01:26:32.195Z,76.96
2017-10-15T01:27:42.591Z,76.67
2017-10-15T01:28:52.723Z,77.06
2017-10-15T01:30:03.105Z,76.39
2017-10-15T01:31:13.183Z,76.57
2017-10-15T01:32:23.612Z,76.86
2017-10-15T01:33:34.048Z,76.39
2017-10-15T01:34:44.129Z,76.67
2017-10-15T01:35:54.523Z,76.39
2017-10-15T01:37:04.599Z,76.39
2017-10-15T01:38:14.992Z,76.67
2017-10-15T01:39:25.074Z,76.57
2017-10-15T01:40:35.360Z,76.39
2017-10-15T01:41:45.097Z,76.39
2017-10-15T01:42:55.509Z,76.86
2017-10-15T01:44:05.924Z,76.86
2017-10-15T01:45:16.327Z,76.86
2017-10-15T01:46:26.725Z,76.86
2017-10-15T01:47:37.125Z,76.86
2017-10-15T01:48:47.517Z,76.86
2017-10-15T01:49:57.905Z,76.77
2017-10-15T01:51:07.644Z,76.67
2017-10-15T01:52:18.063Z,76.57
2017-10-15T01:53:28.480Z,76.57
2017-10-15T01:54:38.893Z,76.57
2017-10-15T01:55:48.971Z,76.86
2017-10-15T01:56:59.389Z,76.86
2017-10-15T01:58:09.527Z,76.39
2017-10-15T01:59:19.603Z,76.77
2017-10-15T02:00:29.998Z,76.86
2017-10-15T02:01:40.051Z,76.86
2017-10-15T02:02:49.799Z,76.57
2017-10-15T02:04:00.211Z,76.57
2017-10-15T02:05:10.607Z,76.2
2017-10-15T02:06:21.005Z,76.39
2017-10-15T02:07:31.423Z,76.57
2017-10-15T02:08:41.836Z,76.57
2017-10-15T02:09:52.226Z,76.57
2017-10-15T02:11:01.971Z,76.57
2017-10-15T02:12:12.061Z,76.96
2017-10-15T02:13:22.119Z,76.39
2017-10-15T02:14:32.513Z,76.39
2017-10-15T02:15:42.911Z,76.39
2017-10-15T02:16:53.294Z,76.67
2017-10-15T02:18:03.362Z,76.39
2017-10-15T02:19:13.452Z,76.48
2017-10-15T02:20:23.868Z,76.48
2017-10-15T02:21:34.317Z,76.48
2017-10-15T02:22:44.398Z,76.67
2017-10-15T02:23:54.141Z,76.77
2017-10-15T02:25:04.533Z,76.67
2017-10-15T02:26:14.277Z,76.67
2017-10-15T02:27:24.752Z,76.67
2017-10-15T02:28:35.151Z,76
2017-10-15T02:29:45.213Z,76
2017-10-15T02:30:55.630Z,76.2
2017-10-15T02:32:06.032Z,76.29
2017-10-15T02:33:16.444Z,76.2
2017-10-15T02:34:26.528Z,76.29
2017-10-15T02:35:36.602Z,76.2
2017-10-15T02:36:46.368Z,76.2
2017-10-15T02:37:56.766Z,76
2017-10-15T02:39:07.183Z,76
2017-10-15T02:40:17.589Z,76
2017-10-15T02:41:27.982Z,75.81
2017-10-15T02:42:38.376Z,75.91
2017-10-15T02:43:48.771Z,76.2
2017-10-15T02:44:59.180Z,76.29
2017-10-15T02:46:09.607Z,76.54
2017-10-15T02:47:19.671Z,76.29
2017-10-15T02:48:30.065Z,76.77
2017-10-15T02:49:39.799Z,76.54
2017-10-15T02:50:49.537Z,76.67
2017-10-15T02:51:59.273Z,76.48
2017-10-15T02:53:09.670Z,76.67
2017-10-15T02:54:20.072Z,76.67
2017-10-15T02:55:30.142Z,76.77
2017-10-15T02:56:40.591Z,76.67
2017-10-15T02:57:51.005Z,76.54
2017-10-15T02:59:01.398Z,76.54
2017-10-15T03:00:11.751Z,76.16
2017-10-15T03:01:22.159Z,76.45
2017-10-15T03:33:34.746Z,73.93
2017-10-15T03:34:45.134Z,74.79
2017-10-15T03:35:55.556Z,75.84
2017-10-15T03:37:05.961Z,76.21
2017-10-15T03:38:16.338Z,76.88
2017-10-15T03:39:26.400Z,77.26
2017-10-15T03:40:36.470Z,76.88
2017-10-15T03:41:46.551Z,77.55
2017-10-15T03:42:56.611Z,77.78
2017-10-15T03:44:07.030Z,77.78
2017-10-15T03:45:17.481Z,77.87
2017-10-15T03:46:27.554Z,77.69
2017-10-15T03:47:37.931Z,77.97
2017-10-15T03:48:48.328Z,77.53
2017-10-15T03:49:58.730Z,77.62
2017-10-15T03:51:09.183Z,77.06
2017-10-15T03:52:19.583Z,77.06
2017-10-15T03:53:29.975Z,77.19
2017-10-15T03:54:40.044Z,77.47
2017-10-15T03:55:50.499Z,77.47
2017-10-15T03:57:00.890Z,77.38
2017-10-15T03:58:10.951Z,76.9
2017-10-15T03:59:21.347Z,76.9
2017-10-15T04:00:31.410Z,77.03
2017-10-15T04:01:41.819Z,76.84
2017-10-15T04:02:51.888Z,77.03
2017-10-15T04:04:02.296Z,76.84
2017-10-15T04:05:12.374Z,76.75
2017-10-15T04:06:22.764Z,77.03
2017-10-15T04:07:33.151Z,76.46
2017-10-15T04:08:43.568Z,76.46
2017-10-15T04:09:53.979Z,76.5
2017-10-15T04:11:04.377Z,76.46
2017-10-15T04:12:14.119Z,76.5
2017-10-15T04:13:24.180Z,76.31
2017-10-15T04:14:34.582Z,76.4
2017-10-15T04:15:44.684Z,76.4
2017-10-15T04:16:55.068Z,76.5
2017-10-15T04:18:05.463Z,76.5
2017-10-15T04:19:15.874Z,76.4
2017-10-15T04:20:25.613Z,76.6
2017-10-15T04:21:35.673Z,76.5
2017-10-15T04:22:46.075Z,76.69
2017-10-15T04:23:56.462Z,76.6
2017-10-15T04:25:06.572Z,76.69
2017-10-15T04:26:16.955Z,76.6
2017-10-15T04:27:27.358Z,76.69
2017-10-15T04:28:37.749Z,76.21
2017-10-15T04:29:47.488Z,76.5
2017-10-15T04:30:57.577Z,76.03
2017-10-15T04:32:08.041Z,76.5
2017-10-15T04:33:18.450Z,76.5
2017-10-15T04:34:28.505Z,76.5
2017-10-15T04:35:38.898Z,76.12
2017-10-15T04:36:49.305Z,76.03
2017-10-15T04:37:59.757Z,76.69
2017-10-15T04:39:10.168Z,76.5
2017-10-15T04:40:20.579Z,76.31
2017-10-15T04:41:30.667Z,76.6
2017-10-15T04:42:40.749Z,76.31
2017-10-15T04:43:51.171Z,76.6
2017-10-15T04:45:01.582Z,76.4
2017-10-15T04:46:12.011Z,76.6
2017-10-15T04:47:22.095Z,76.5
2017-10-15T04:48:32.498Z,76.12
2017-10-15T04:49:42.886Z,76.12
2017-10-15T04:50:53.275Z,76.4
2017-10-15T04:52:03.682Z,76.69
2017-10-15T04:53:13.751Z,76.4
2017-10-15T04:54:24.152Z,76.31
2017-10-15T04:55:33.967Z,76.31
2017-10-15T04:56:44.361Z,76.4
2017-10-15T04:57:54.766Z,76.69
2017-10-15T04:59:05.185Z,76.31
2017-10-15T05:00:15.602Z,76.31
2017-10-15T05:01:26.058Z,76.5
2017-10-15T05:02:36.460Z,76.4
2017-10-15T05:03:45.880Z,76.31
2017-10-15T05:04:56.307Z,76.4
2017-10-15T05:06:06.392Z,76.4
2017-10-15T05:07:16.173Z,76.4
2017-10-15T05:08:26.580Z,76.4
2017-10-15T05:09:36.981Z,76.4
2017-10-15T05:10:47.394Z,76.4
2017-10-15T05:11:57.473Z,76.6
2017-10-15T05:13:07.587Z,76.5
2017-10-15T05:14:17.972Z,76.5
2017-10-15T05:15:28.360Z,76.03
2017-10-15T05:16:38.406Z,76.12
2017-10-15T05:17:48.804Z,75.74
2017-10-15T05:18:58.581Z,75.74
2017-10-15T05:20:08.966Z,75.93
2017-10-15T05:21:19.070Z,75.93
2017-10-15T05:22:28.782Z,75.93
2017-10-15T05:23:38.852Z,75.93
2017-10-15T05:24:48.948Z,75.74
2017-10-15T05:25:59.016Z,75.93
2017-10-15T05:27:09.429Z,75.93
2017-10-15T05:28:19.822Z,75.74
2017-10-15T05:29:29.914Z,75.74
2017-10-15T05:30:40.306Z,75.93
2017-10-15T05:31:50.707Z,76.03
2017-10-15T05:33:01.937Z,76.31
2017-10-15T05:34:12.337Z,76.21
2017-10-15T05:35:22.739Z,76.12
2017-10-15T05:36:33.200Z,76.12
2017-10-15T05:37:43.272Z,76.03
2017-10-15T05:38:52.998Z,75.96
2017-10-15T05:40:03.069Z,75.93
2017-10-15T05:41:13.475Z,76.25
2017-10-15T05:42:23.888Z,76.35
2017-10-15T05:43:33.955Z,75.93
2017-10-15T05:44:44.352Z,76.03
2017-10-15T05:45:54.444Z,76.16
2017-10-15T05:47:04.826Z,76.16
2017-10-15T05:48:14.889Z,76.25
2017-10-15T05:49:25.293Z,76.25
2017-10-15T05:50:35.356Z,76.06
2017-10-15T05:51:45.748Z,76.16
2017-10-15T05:52:56.145Z,76.25
2017-10-15T05:54:06.221Z,76.25
2017-10-15T05:55:16.634Z,76.16
2017-10-15T05:56:27.040Z,75.68
2017-10-15T05:57:37.433Z,76.16
2017-10-15T05:58:47.174Z,75.96
2017-10-15T05:59:57.575Z,76.25
2017-10-15T06:01:07.989Z,76.16
2017-10-15T06:02:18.403Z,75.68
2017-10-15T06:03:28.485Z,75.87
2017-10-15T06:04:38.883Z,75.96
2017-10-15T06:05:48.955Z,75.59
2017-10-15T06:06:59.033Z,75.78
2017-10-15T06:08:09.449Z,75.78
2017-10-15T06:09:19.505Z,75.78
2017-10-15T06:10:29.260Z,75.96
2017-10-15T06:11:39.659Z,75.78
2017-10-15T06:12:50.055Z,75.68
2017-10-15T06:14:00.127Z,75.68
2017-10-15T06:15:10.539Z,76.16
2017-10-15T06:16:20.920Z,75.81
2017-10-15T06:17:31.413Z,75.71
2017-10-15T06:18:41.492Z,75.43
2017-10-15T06:19:51.545Z,75.62
2017-10-15T06:21:02.011Z,75.24
2017-10-15T06:22:12.119Z,75.62
2017-10-15T06:23:22.531Z,75.71
2017-10-15T06:24:32.923Z,75.52
2017-10-15T06:25:42.655Z,75.52
2017-10-15T06:26:53.056Z,75.71
2017-10-15T06:28:03.163Z,75.81
2017-10-15T06:29:13.560Z,75.62
2017-10-15T06:30:23.953Z,75.71
2017-10-15T06:31:34.020Z,75.56
2017-10-15T06:32:44.421Z,75.27
2017-10-15T06:33:54.836Z,75.47
2017-10-15T06:35:04.927Z,75.66
2017-10-15T06:36:15.374Z,75.47
2017-10-15T06:37:25.762Z,75.56
2017-10-15T06:38:35.825Z,75.56
2017-10-15T06:39:46.234Z,75.56
2017-10-15T06:40:56.651Z,75.56
2017-10-15T06:42:07.054Z,75.51
2017-10-15T06:43:17.456Z,75.31
2017-10-15T06:44:27.806Z,75.51
2017-10-15T06:45:38.223Z,75.6
2017-10-15T06:46:48.628Z,75.6
2017-10-15T06:47:59.033Z,75.6
2017-10-15T06:49:09.450Z,75.7
2017-10-15T06:50:19.582Z,75.54
2017-10-15T06:51:29.654Z,75.64
2017-10-15T06:52:40.066Z,75.64
2017-10-15T06:53:50.127Z,75.83
2017-10-15T06:55:00.541Z,75.54
2017-10-15T06:56:10.944Z,75.45
2017-10-15T06:57:21.338Z,75.35
2017-10-15T06:58:31.755Z,75.26
2017-10-15T06:59:41.817Z,75.48
2017-10-15T07:00:52.207Z,75.48
2017-10-15T07:02:02.629Z,75.39
2017-10-15T07:03:13.043Z,75.29
2017-10-15T07:04:23.459Z,75.58
2017-10-15T07:05:33.875Z,75.2
2017-10-15T07:06:44.282Z,75.33
2017-10-15T07:07:54.727Z,75.33
2017-10-15T07:09:04.805Z,75.33
2017-10-15T07:10:14.899Z,75.33
2017-10-15T07:11:25.300Z,75.23
2017-10-15T07:12:35.711Z,75.04
2017-10-15T07:13:46.116Z,74.98
2017-10-15T07:14:56.513Z,75.04
2017-10-15T07:16:06.919Z,75.27
2017-10-15T07:17:17.006Z,75.37
2017-10-15T07:18:27.418Z,75.37
2017-10-15T07:19:37.856Z,75.27
2017-10-15T07:20:47.603Z,75.27
2017-10-15T07:21:57.679Z,75.37
2017-10-15T07:23:08.141Z,75.56
2017-10-15T07:24:17.883Z,75.31
2017-10-15T07:25:28.351Z,75.21
2017-10-15T07:26:38.771Z,75.5
2017-10-15T07:27:49.183Z,75.12
2017-10-15T07:28:59.588Z,75.21
2017-10-15T07:30:10.007Z,75.21
2017-10-15T07:31:20.115Z,75.21
2017-10-15T07:32:30.227Z,75.7
2017-10-15T07:33:40.637Z,75.21
2017-10-15T07:34:50.718Z,75.21
2017-10-15T07:36:01.126Z,75.35
2017-10-15T07:37:11.534Z,75.45
2017-10-15T07:38:21.929Z,75.35
2017-10-15T07:39:31.986Z,75.35
2017-10-15T07:40:42.058Z,75.35
2017-10-15T07:41:52.116Z,75.15
2017-10-15T07:43:02.187Z,75.35
2017-10-15T07:44:12.264Z,75.45
2017-10-15T07:45:22.673Z,75.54
2017-10-15T07:46:33.090Z,75.2
2017-10-15T07:47:42.839Z,75.48
2017-10-15T07:48:53.294Z,75.29
2017-10-15T07:50:03.377Z,75.38
2017-10-15T07:51:13.800Z,75.29
2017-10-15T07:52:23.885Z,75.32
2017-10-15T07:53:34.293Z,75.23
2017-10-15T07:54:44.701Z,75.23
2017-10-15T07:55:54.792Z,75.13
2017-10-15T07:57:05.199Z,75.32
2017-10-15T07:58:15.619Z,74.65
2017-10-15T07:59:26.002Z,74.5
2017-10-15T08:00:35.817Z,74.4
2017-10-15T08:01:45.883Z,74.69
2017-10-15T08:02:56.293Z,74.4
2017-10-15T08:04:06.709Z,74.69
2017-10-15T08:05:17.123Z,74.69
2017-10-15T08:06:27.523Z,74.69
2017-10-15T08:07:37.618Z,74.69
2017-10-15T08:08:47.704Z,74.63
2017-10-15T08:09:57.782Z,74.73
2017-10-15T08:11:07.860Z,74.82
2017-10-15T08:12:18.323Z,74.63
2017-10-15T08:13:28.398Z,74.73
2017-10-15T08:14:38.801Z,74.73
2017-10-15T08:15:49.213Z,74.57
2017-10-15T08:16:59.620Z,74.48
2017-10-15T08:18:10.062Z,74.76
2017-10-15T08:19:20.462Z,74.57
2017-10-15T08:20:30.895Z,74.57
2017-10-15T08:21:41.320Z,74.8
2017-10-15T08:22:51.402Z,74.71
2017-10-15T08:24:01.463Z,74.71
2017-10-15T08:25:11.579Z,74.51
2017-10-15T08:26:21.665Z,74.61
2017-10-15T08:27:32.074Z,74.8
2017-10-15T08:28:42.157Z,74.55
2017-10-15T08:29:52.557Z,74.65
2017-10-15T08:31:02.979Z,74.74
2017-10-15T08:32:13.086Z,74.65
2017-10-15T08:33:23.498Z,74.74
2017-10-15T08:34:33.899Z,74.65
2017-10-15T08:35:44.321Z,74.55
2017-10-15T08:36:54.763Z,74.84
2017-10-15T08:38:05.182Z,74.78
2017-10-15T08:39:15.616Z,74.78
2017-10-15T08:40:25.717Z,74.97
2017-10-15T08:41:35.809Z,74.97
2017-10-15T08:42:46.222Z,75.1
2017-10-15T08:43:56.659Z,74.97
2017-10-15T08:45:07.069Z,75.01
2017-10-15T08:46:17.486Z,75.1
2017-10-15T08:47:27.618Z,74.62
2017-10-15T08:48:38.040Z,74.91
2017-10-15T08:49:48.135Z,74.62
2017-10-15T08:50:58.554Z,74.62
2017-10-15T08:52:08.958Z,74.57
2017-10-15T08:53:19.376Z,75.01
2017-10-15T08:54:29.787Z,75.14
2017-10-15T08:55:40.251Z,75.05
2017-10-15T08:56:50.336Z,74.95
2017-10-15T08:58:00.737Z,74.76
2017-10-15T08:59:10.823Z,75.05
2017-10-15T09:00:21.217Z,74.79
2017-10-15T09:01:31.300Z,74.79
2017-10-15T09:02:41.374Z,74.51
2017-10-15T09:03:51.784Z,74.89
2017-10-15T09:05:01.921Z,75.09
2017-10-15T09:06:11.997Z,74.73
2017-10-15T09:07:22.399Z,75.02
2017-10-15T09:08:32.837Z,75.02
2017-10-15T09:09:43.246Z,75.02
2017-10-15T09:10:53.675Z,75.12
2017-10-15T09:12:04.102Z,75.12
2017-10-15T09:13:14.511Z,75.02
2017-10-15T09:14:24.264Z,75.12
2017-10-15T09:15:34.752Z,75.02
2017-10-15T09:16:44.826Z,75.06
2017-10-15T09:17:55.255Z,75.26
2017-10-15T09:19:05.683Z,74.87
2017-10-15T09:20:15.767Z,75.16
2017-10-15T09:21:26.200Z,75.26
2017-10-15T09:22:36.662Z,75.16
2017-10-15T09:23:47.077Z,75.16
2017-10-15T09:24:57.156Z,75.16
2017-10-15T09:26:07.867Z,75.16
2017-10-15T09:27:18.291Z,75.06
2017-10-15T09:28:28.381Z,75.16
2017-10-15T09:29:38.799Z,74.96
2017-10-15T09:30:48.879Z,74.96
2017-10-15T09:31:58.972Z,75.16
2017-10-15T09:33:09.083Z,75.1
2017-10-15T09:34:19.552Z,75.29
2017-10-15T09:35:29.982Z,74.9
2017-10-15T09:36:40.299Z,74.71
2017-10-15T09:37:50.379Z,75.39
2017-10-15T09:39:00.816Z,75.2
2017-10-15T09:40:10.612Z,75
2017-10-15T09:41:21.022Z,75.23
2017-10-15T09:42:31.101Z,75.33
2017-10-15T09:43:41.514Z,75.33
2017-10-15T09:44:51.945Z,75.04
2017-10-15T09:46:02.384Z,75.33
2017-10-15T09:47:12.799Z,75.23
2017-10-15T09:48:23.221Z,75.33
2017-10-15T09:49:33.308Z,74.75
2017-10-15T09:50:43.379Z,74.85
2017-10-15T09:51:53.460Z,74.79
2017-10-15T09:53:03.872Z,74.75
2017-10-15T09:54:14.283Z,74.85
2017-10-15T09:55:24.695Z,74.79
2017-10-15T09:56:35.117Z,74.88
2017-10-15T09:57:45.586Z,75.17
2017-10-15T09:58:55.987Z,75.17
2017-10-15T10:00:06.083Z,74.79
2017-10-15T10:01:16.177Z,74.88
2017-10-15T10:02:26.612Z,74.88
2017-10-15T10:03:36.390Z,75.07
2017-10-15T10:04:46.830Z,74.88
2017-10-15T10:05:57.251Z,75.07
2017-10-15T10:07:07.720Z,74.79
2017-10-15T10:08:18.205Z,75.07
2017-10-15T10:09:29.961Z,75.07
2017-10-15T10:10:39.706Z,74.79
2017-10-15T10:11:49.790Z,75.27
2017-10-15T10:13:00.258Z,75.17
2017-10-15T10:14:10.654Z,75.11
2017-10-15T10:15:21.128Z,75.02
2017-10-15T10:16:31.642Z,75.02
2017-10-15T10:17:42.094Z,75.31
2017-10-15T10:18:52.521Z,74.73
2017-10-15T10:20:02.957Z,75.02
2017-10-15T10:21:13.489Z,74.82
2017-10-15T10:22:23.902Z,75.21
2017-10-15T10:23:34.997Z,75.02
2017-10-15T10:24:45.417Z,74.96
2017-10-15T10:25:55.927Z,75.05
2017-10-15T10:27:06.404Z,75.05
2017-10-15T10:28:16.481Z,75.15
2017-10-15T10:29:26.561Z,75.05
2017-10-15T10:30:37.027Z,74.96
2017-10-15T10:31:47.432Z,74.96
2017-10-15T10:32:57.842Z,74.86
2017-10-15T10:34:08.274Z,74.96
2017-10-15T10:35:18.388Z,75.15
2017-10-15T10:36:28.488Z,75.24
2017-10-15T10:37:38.905Z,74.76
2017-10-15T10:38:49.325Z,74.86
2017-10-15T10:39:59.434Z,74.6
2017-10-15T10:41:09.868Z,74.8
2017-10-15T10:42:19.956Z,74.8
2017-10-15T10:43:30.400Z,74.76
2017-10-15T10:44:40.817Z,74.57
2017-10-15T10:45:51.235Z,74.7
2017-10-15T10:47:01.340Z,75.38
2017-10-15T10:48:11.766Z,75.19
2017-10-15T10:49:21.884Z,74.7
2017-10-15T10:50:31.328Z,74.9
2017-10-15T10:51:41.512Z,74.9
2017-10-15T10:52:51.834Z,74.7
2017-10-15T10:54:02.274Z,74.6
2017-10-15T10:55:12.711Z,74.64
2017-10-15T10:56:23.134Z,74.74
2017-10-15T10:57:33.568Z,74.84
2017-10-15T10:58:44.540Z,74.84
2017-10-15T10:59:54.956Z,74.64
2017-10-15T11:01:05.370Z,74.93
2017-10-15T11:02:15.833Z,74.74
2017-10-15T11:03:25.914Z,74.49
2017-10-15T11:04:36.008Z,74.64
2017-10-15T11:05:46.446Z,74.74
2017-10-15T11:06:57.184Z,74.64
2017-10-15T11:08:08.935Z,74.84
2017-10-15T11:09:18.722Z,74.64
2017-10-15T11:10:29.148Z,74.54
2017-10-15T11:11:39.563Z,74.64
2017-10-15T11:12:50.012Z,74.54
2017-10-15T11:14:00.490Z,74.93
2017-10-15T11:15:10.932Z,74.93
2017-10-15T11:16:21.012Z,74.74
2017-10-15T11:17:31.426Z,74.93
2017-10-15T11:18:42.696Z,74.84
2017-10-15T11:19:52.123Z,74.68
2017-10-15T11:21:02.528Z,74.93
2017-10-15T11:22:12.952Z,74.74
2017-10-15T11:23:23.374Z,74.87
2017-10-15T11:24:33.818Z,74.87
2017-10-15T11:25:44.247Z,74.49
2017-10-15T11:26:54.664Z,74.39
2017-10-15T11:28:05.072Z,74.49
2017-10-15T11:29:15.494Z,74.87
2017-10-15T11:30:25.927Z,74.29
2017-10-15T11:31:36.004Z,74.29
2017-10-15T11:32:46.417Z,74.49
2017-10-15T11:33:56.508Z,74.29
2017-10-15T11:35:06.931Z,74.19
2017-10-15T11:36:17.354Z,74.13
2017-10-15T11:37:27.459Z,74.43
2017-10-15T11:38:37.899Z,74.33
2017-10-15T11:39:48.333Z,74.13
2017-10-15T11:40:58.835Z,74.33
2017-10-15T11:42:09.272Z,75.01
2017-10-15T11:43:19.692Z,74.81
2017-10-15T11:44:30.115Z,74.43
2017-10-15T11:45:40.288Z,74.43
2017-10-15T11:46:50.722Z,74.23
2017-10-15T11:48:01.148Z,74.23
2017-10-15T11:49:11.571Z,74.43
2017-10-15T11:50:22.017Z,74.56
2017-10-15T11:51:32.436Z,74.56
2017-10-15T11:52:42.863Z,74.56
2017-10-15T11:53:52.985Z,74.37
2017-10-15T11:55:03.079Z,74.17
2017-10-15T11:56:13.180Z,74.56
2017-10-15T11:57:23.265Z,74.56
2017-10-15T11:58:33.352Z,74.27
2017-10-15T11:59:43.764Z,74.37
2017-10-15T12:00:54.241Z,74.27
2017-10-15T12:02:04.668Z,74.65
2017-10-15T12:03:14.423Z,74.4
2017-10-15T12:04:24.822Z,74.69
2017-10-15T12:05:35.249Z,74.6
2017-10-15T12:06:45.705Z,74.6
2017-10-15T12:07:56.136Z,74.6
2017-10-15T12:09:06.238Z,74.79
2017-10-15T12:10:16.671Z,74.4
2017-10-15T12:11:27.098Z,74.69
2017-10-15T12:12:37.583Z,74.4
2017-10-15T12:13:47.994Z,74.4
2017-10-15T12:14:58.404Z,74.21
2017-10-15T12:16:08.853Z,74.4
2017-10-15T12:17:19.283Z,74.21
2017-10-15T12:18:29.428Z,74.4
2017-10-15T12:19:39.895Z,74.3
2017-10-15T12:20:49.983Z,74.24
2017-10-15T12:21:59.761Z,74.73
2017-10-15T12:23:10.175Z,74.44
2017-10-15T12:24:20.607Z,74.44
2017-10-15T12:25:31.047Z,74.73
2017-10-15T12:26:41.469Z,74.44
2017-10-15T12:27:51.884Z,74.24
2017-10-15T12:29:01.979Z,74.24
2017-10-15T12:30:12.455Z,74.34
2017-10-15T12:31:22.547Z,74.34
2017-10-15T12:32:32.944Z,75.12
2017-10-15T12:33:43.372Z,75.02
2017-10-15T12:34:53.828Z,75.12
2017-10-15T12:36:03.981Z,75.12
2017-10-15T12:37:14.426Z,75.12
2017-10-15T12:38:24.849Z,75.12
2017-10-15T12:39:35.271Z,75.02
2017-10-15T12:40:45.681Z,74.82
2017-10-15T12:41:56.108Z,75.12
2017-10-15T12:43:06.542Z,75.51
2017-10-15T12:44:16.645Z,75.6
2017-10-15T12:45:27.064Z,75.51
2017-10-15T12:46:37.485Z,75.31
2017-10-15T12:47:47.919Z,75.41
2017-10-15T12:48:58.357Z,75.51
2017-10-15T12:50:08.787Z,75.27
2017-10-15T12:51:19.197Z,75.08
2017-10-15T12:52:29.602Z,75.08
2017-10-15T12:53:39.756Z,75.18
2017-10-15T12:54:50.170Z,75.18
2017-10-15T12:56:00.595Z,75.08
2017-10-15T12:57:10.720Z,75.27
2017-10-15T12:58:21.136Z,75.57
2017-10-15T12:59:31.625Z,75.37
2017-10-15T13:00:42.054Z,75.67
2017-10-15T13:01:52.505Z,75.67
2017-10-15T13:03:02.925Z,75.62
2017-10-15T13:04:13.355Z,75.57
2017-10-15T13:05:23.499Z,75.57
2017-10-15T13:06:33.902Z,75.57
2017-10-15T13:07:43.985Z,75.24
2017-10-15T13:08:54.436Z,75.57
2017-10-15T13:10:04.859Z,75.24
2017-10-15T13:11:15.352Z,75.43
2017-10-15T13:12:25.789Z,75.43
2017-10-15T13:13:35.931Z,75.34
2017-10-15T13:14:46.352Z,75.53
2017-10-15T13:15:56.104Z,75.43
2017-10-15T13:17:06.553Z,75.37
2017-10-15T13:18:16.970Z,75.43
2017-10-15T13:19:27.380Z,75.47
2017-10-15T13:20:37.807Z,75.47
2017-10-15T13:21:48.231Z,75.34
2017-10-15T13:22:58.706Z,75.43
2017-10-15T13:24:09.148Z,75.27
2017-10-15T13:25:19.578Z,75.47
2017-10-15T13:26:29.663Z,75.37
2017-10-15T13:27:39.752Z,75.47
2017-10-15T13:28:50.192Z,75.27
2017-10-15T13:30:00.623Z,75.43
2017-10-15T13:31:11.062Z,75.47
2017-10-15T13:32:21.465Z,75.34
2017-10-15T13:33:31.910Z,75.24
2017-10-15T13:34:42.356Z,75.27
2017-10-15T13:35:52.442Z,75.37
2017-10-15T13:37:02.508Z,75.53
2017-10-15T13:38:12.945Z,75.18
2017-10-15T13:39:23.035Z,75.47
2017-10-15T13:40:33.516Z,75.27
2017-10-15T13:41:43.925Z,75.37
2017-10-15T13:42:54.015Z,75.57
2017-10-15T13:44:04.440Z,75.34
2017-10-15T13:45:14.872Z,75.43
2017-10-15T13:46:25.305Z,76.5
2017-10-15T13:47:35.718Z,76.01
2017-10-15T13:48:46.150Z,76.11
2017-10-15T13:49:56.601Z,76.21
2017-10-15T13:51:07.021Z,76.21
2017-10-15T13:52:17.491Z,76.11
2017-10-15T13:53:27.576Z,76.11
2017-10-15T13:54:37.994Z,75.92
2017-10-15T13:55:48.402Z,76.01
2017-10-15T13:56:58.846Z,76.21
2017-10-15T13:58:09.013Z,76.01
2017-10-15T13:59:19.670Z,76.01
2017-10-15T14:00:30.105Z,76.11
2017-10-15T14:01:40.542Z,76.07
2017-10-15T14:02:50.978Z,76.07
2017-10-15T14:04:01.133Z,76.01
2017-10-15T14:05:11.573Z,76.17
2017-10-15T14:06:22.011Z,76.07
2017-10-15T14:07:32.107Z,76.11
2017-10-15T14:08:42.535Z,76.4
2017-10-15T14:09:52.645Z,76.31
2017-10-15T14:11:02.630Z,76.31
2017-10-15T14:12:12.748Z,76.27
2017-10-15T14:13:23.157Z,76.21
2017-10-15T14:14:33.588Z,76.27
2017-10-15T14:15:43.731Z,76.56
2017-10-15T14:16:53.846Z,76.75
2017-10-15T14:18:04.288Z,76.46
2017-10-15T14:19:14.055Z,76.37
2017-10-15T14:20:24.483Z,76.37
2017-10-15T14:21:34.655Z,76.81
2017-10-15T14:22:45.095Z,76.32
2017-10-15T14:23:55.428Z,76.37
2017-10-15T14:25:05.541Z,76.32
2017-10-15T14:26:15.957Z,76.81
2017-10-15T14:27:26.420Z,76.75
2017-10-15T14:28:36.849Z,76.37
2017-10-15T14:29:47.279Z,76.32
2017-10-15T14:30:57.711Z,76.52
2017-10-15T14:32:08.126Z,76.91
2017-10-15T14:33:18.600Z,76.81
2017-10-15T14:34:29.024Z,76.42
2017-10-15T14:35:39.445Z,76.81
2017-10-15T14:36:49.876Z,76.42
2017-10-15T14:38:00.322Z,76.52
2017-10-15T14:39:10.725Z,76.32
2017-10-15T14:40:21.127Z,76.62
2017-10-15T14:41:31.557Z,76.72
2017-10-15T14:42:41.657Z,76.42
2017-10-15T14:43:52.090Z,76.52
2017-10-15T14:45:02.569Z,76.32
2017-10-15T14:46:12.659Z,76.72
2017-10-15T14:47:23.089Z,77.06
2017-10-15T14:48:33.529Z,77.06
2017-10-15T14:49:43.948Z,76.78
2017-10-15T14:50:54.103Z,76.78
2017-10-15T14:52:04.548Z,77.16
2017-10-15T14:53:14.636Z,77.36
2017-10-15T14:54:24.723Z,77.06
2017-10-15T14:55:35.154Z,77.36
2017-10-15T14:56:45.578Z,77.26
2017-10-15T14:57:55.677Z,77.16
2017-10-15T14:59:06.083Z,77.22
2017-10-15T15:00:16.179Z,77.22
2017-10-15T15:01:26.277Z,77.03
2017-10-15T15:02:36.735Z,77.03
2017-10-15T15:03:47.456Z,77.03
2017-10-15T15:04:57.878Z,76.83
2017-10-15T15:06:07.984Z,76.93
2017-10-15T15:07:18.079Z,77.12
2017-10-15T15:08:28.550Z,77.12
2017-10-15T15:09:38.965Z,77.12
2017-10-15T15:10:49.052Z,77.22
2017-10-15T15:11:59.468Z,77.7
2017-10-15T15:13:09.870Z,77.47
2017-10-15T15:14:20.333Z,77.37
2017-10-15T15:15:30.758Z,77.67
2017-10-15T15:16:40.531Z,77.57
2017-10-15T15:17:50.976Z,77.67
2017-10-15T15:19:01.391Z,77.76
2017-10-15T15:20:11.218Z,77.96
2017-10-15T15:21:21.660Z,77.96
2017-10-15T15:22:31.761Z,78.11
2017-10-15T15:23:41.871Z,77.73
2017-10-15T15:24:51.963Z,78.11
2017-10-15T15:26:02.635Z,77.73
2017-10-15T15:27:13.061Z,78.11
2017-10-15T15:28:23.484Z,77.82
2017-10-15T15:29:33.933Z,78.02
2017-10-15T15:30:44.062Z,78.21
2017-10-15T15:31:54.539Z,78.08
2017-10-15T15:33:04.644Z,78.17
2017-10-15T15:34:15.090Z,78.36
2017-10-15T15:35:25.483Z,78.27
2017-10-15T15:36:35.911Z,78.36
2017-10-15T15:37:45.998Z,78.17
2017-10-15T15:38:56.442Z,78.36
2017-10-15T15:40:07.090Z,78.33
2017-10-15T15:41:17.526Z,78.03